Time;durP1;ratioP1;P1;durP2;ratioP2;P2;SDS_P1;SDS_P2;PMS_P1;PMS_P2;Temp;Humidity;BMP_temperature;BMP_pressure;BME280_temperature;BME280_humidity;BME280_pressure;Samples;Min_cycle;Max_cycle;Signal;HPM_P1;HPM_P2
2022/03/01 00:01:52;;;;;;;;;53.75;43.00;;;;;8.12;46.22;102365.13;5098364;27;45292;-48
2022/03/01 00:04:18;;;;;;;;;58.25;40.00;;;;;8.12;46.54;102361.63;5097955;27;45430;-45
2022/03/01 00:06:44;;;;;;;;;49.00;42.00;;;;;8.10;46.78;102353.78;5097955;27;45469;-46
2022/03/01 00:09:09;;;;;;;;;60.25;46.50;;;;;8.07;47.15;102353.94;5098234;27;45231;-45
2022/03/01 00:11:35;;;;;;;;;54.25;43.75;;;;;8.02;47.23;102349.88;5098239;27;45290;-54
2022/03/01 00:14:01;;;;;;;;;59.75;42.50;;;;;8.05;46.34;102360.25;5097989;27;47182;-44
2022/03/01 00:16:26;;;;;;;;;60.25;44.25;;;;;8.02;46.87;102357.81;5097698;27;45334;-45
2022/03/01 00:18:52;;;;;;;;;54.75;44.00;;;;;7.96;46.86;102353.72;5098070;27;45364;-45
2022/03/01 00:21:17;;;;;;;;;56.50;40.25;;;;;7.96;47.40;102353.72;5098439;27;45257;-46
2022/03/01 00:23:42;;;;;;;;;50.50;40.25;;;;;7.96;46.15;102357.25;5097911;27;46315;-47
2022/03/01 00:26:08;;;;;;;;;59.50;45.25;;;;;7.96;46.60;102351.94;5097786;27;45406;-46
2022/03/01 00:28:34;;;;;;;;;58.50;45.00;;;;;7.94;47.41;102355.63;5097937;27;45397;-46
2022/03/01 00:30:59;;;;;;;;;61.00;47.25;;;;;7.85;47.78;102335.81;5097234;27;45379;-46
2022/03/01 00:33:25;;;;;;;;;62.75;45.75;;;;;7.94;47.79;102342.38;5097487;27;45987;-47
2022/03/01 00:35:50;;;;;;;;;62.75;45.75;;;;;7.97;47.02;102339.53;5097600;27;45465;-44
2022/03/01 00:38:15;;;;;;;;;55.25;43.25;;;;;8.02;46.34;102340.13;5097607;27;45331;-46
2022/03/01 00:40:41;;;;;;;;;49.00;42.25;;;;;7.93;47.34;102336.22;5097916;27;45402;-46
2022/03/01 00:43:06;;;;;;;;;60.50;45.50;;;;;7.91;47.32;102343.38;5097360;27;45471;-46
2022/03/01 00:45:32;;;;;;;;;60.75;46.25;;;;;7.84;47.11;102343.88;5097205;27;45409;-46
2022/03/01 00:47:57;;;;;;;;;60.75;44.50;;;;;7.79;46.72;102338.81;5097715;27;45286;-44
2022/03/01 00:50:23;;;;;;;;;54.25;41.00;;;;;7.76;47.57;102333.72;5097674;27;45517;-46
2022/03/01 00:52:48;;;;;;;;;64.50;44.00;;;;;7.71;47.23;102343.69;5097428;27;46808;-44
2022/03/01 00:55:13;;;;;;;;;51.25;44.25;;;;;7.64;47.36;102339.72;5097369;27;45203;-46
2022/03/01 00:57:39;;;;;;;;;63.25;43.25;;;;;7.66;47.91;102346.63;5097568;27;45358;-46
2022/03/01 01:00:06;;;;;;;;;47.25;39.75;;;;;7.64;47.67;102348.50;5097564;27;45279;-46
2022/03/01 01:02:31;;;;;;;;;55.00;45.50;;;;;7.60;48.39;102340.84;5097265;27;46203;-49
2022/03/01 01:04:57;;;;;;;;;59.50;43.25;;;;;7.63;48.21;102351.25;5097412;27;45333;-48
2022/03/01 01:07:22;;;;;;;;;64.00;45.75;;;;;7.64;48.04;102371.50;5097162;27;45481;-46
2022/03/01 01:09:48;;;;;;;;;61.75;43.50;;;;;7.49;47.96;102336.13;5097708;27;45219;-46
2022/03/01 01:12:13;;;;;;;;;45.00;41.00;;;;;7.60;48.28;102354.94;5097109;27;45941;-48
2022/03/01 01:14:39;;;;;;;;;46.25;37.25;;;;;7.58;47.55;102348.84;5097160;27;45338;-47
2022/03/01 01:17:04;;;;;;;;;59.25;41.00;;;;;7.43;48.08;102317.97;5097122;27;45470;-45
2022/03/01 01:19:30;;;;;;;;;54.25;41.00;;;;;7.52;48.68;102329.81;5097128;27;45405;-47
2022/03/01 01:24:39;;;;;;;;;56.00;44.25;;;;;7.47;48.78;102335.38;5096962;27;45387;-45
2022/03/01 01:27:04;;;;;;;;;59.75;42.50;;;;;7.42;49.41;102329.50;5097078;27;45437;-47
2022/03/01 01:29:29;;;;;;;;;49.25;39.00;;;;;7.32;48.84;102317.72;5097190;27;45333;-47
2022/03/01 01:31:55;;;;;;;;;52.25;44.00;;;;;7.39;48.61;102332.31;5096719;27;45399;-48
2022/03/01 01:34:20;;;;;;;;;57.75;41.00;;;;;7.33;48.45;102330.00;5096834;27;45421;-47
2022/03/01 01:36:45;;;;;;;;;53.25;43.75;;;;;7.17;48.82;102306.22;5096924;27;45464;-47
2022/03/01 01:39:11;;;;;;;;;50.75;42.50;;;;;7.28;49.25;102326.78;5097169;27;45641;-46
2022/03/01 01:41:36;;;;;;;;;54.50;43.00;;;;;7.26;49.09;102324.22;5098935;27;46047;-46
2022/03/01 01:44:05;;;;;;;;;53.75;43.25;;;;;7.22;49.27;102325.34;5100428;27;45291;-43
2022/03/01 01:46:31;;;;;;;;;60.25;47.75;;;;;7.19;49.43;102328.13;5100479;27;45459;-47
2022/03/01 01:48:56;;;;;;;;;61.50;46.00;;;;;7.13;49.49;102328.50;5100905;27;45295;-44
2022/03/01 01:51:23;;;;;;;;;56.25;44.00;;;;;7.03;49.25;102311.41;5100329;27;45509;-44
2022/03/01 01:53:48;;;;;;;;;61.00;44.25;;;;;7.13;49.19;102328.50;5100308;27;45752;-47
2022/03/01 01:56:14;;;;;;;;;54.75;42.50;;;;;7.12;49.04;102332.94;5100529;27;45337;-45
2022/03/01 01:58:39;;;;;;;;;58.00;41.25;;;;;7.11;49.27;102328.56;5100362;27;45483;-45
2022/03/01 02:01:05;;;;;;;;;49.75;42.00;;;;;7.10;49.76;102332.16;5100371;27;45934;-45
2022/03/01 02:03:30;;;;;;;;;60.75;44.00;;;;;7.08;49.01;102336.69;5100105;27;45445;-49
2022/03/01 02:05:55;;;;;;;;;56.00;43.25;;;;;7.06;49.54;102338.56;5100322;27;45892;-45
2022/03/01 02:08:28;;;;;;;;;50.50;41.00;;;;;7.05;49.57;102342.16;5100448;27;45352;-44
2022/03/01 02:10:54;;;;;;;;;55.00;42.00;;;;;7.10;49.67;102334.81;5099827;27;46481;-46
2022/03/01 02:13:19;;;;;;;;;57.00;42.00;;;;;7.18;49.35;102342.31;5099271;27;45418;-45
2022/03/01 02:15:44;;;;;;;;;54.75;41.50;;;;;7.17;48.90;102332.69;5099775;27;45475;-46
2022/03/01 02:18:10;;;;;;;;;58.00;39.75;;;;;6.82;49.17;102279.06;5100089;27;45265;-46
2022/03/01 02:20:35;;;;;;;;;49.00;43.00;;;;;7.15;49.62;102327.44;5099756;27;45409;-45
2022/03/01 02:23:01;;;;;;;;;57.00;43.75;;;;;7.12;49.59;102337.34;5099583;27;45401;-45
2022/03/01 02:25:27;;;;;;;;;55.00;44.00;;;;;7.06;49.90;102330.63;5100058;27;45429;-45
2022/03/01 02:27:52;;;;;;;;;66.00;44.25;;;;;7.05;49.69;102336.84;5100019;27;45520;-44
2022/03/01 02:30:18;;;;;;;;;55.50;38.25;;;;;7.00;49.71;102326.53;5099719;27;45939;-44
2022/03/01 02:32:43;;;;;;;;;60.75;41.25;;;;;6.99;50.07;102321.31;5099632;27;45628;-47
2022/03/01 02:35:11;;;;;;;;;59.75;44.50;;;;;7.05;50.15;102334.22;5099613;27;45685;-45
2022/03/01 02:37:37;;;;;;;;;64.00;46.25;;;;;7.06;48.83;102324.47;5099888;27;45536;-48
2022/03/01 02:40:05;;;;;;;;;60.50;48.25;;;;;6.94;49.45;102308.34;5099564;27;45316;-47
2022/03/01 02:42:30;;;;;;;;;56.00;45.75;;;;;6.91;49.85;102305.00;5099366;27;45397;-47
2022/03/01 02:44:57;;;;;;;;;62.00;47.00;;;;;7.00;50.11;102320.38;5099241;27;45567;-46
2022/03/01 02:47:23;;;;;;;;;69.75;50.50;;;;;6.99;50.11;102322.19;5099761;27;45509;-46
2022/03/01 02:49:48;;;;;;;;;64.25;45.25;;;;;6.97;50.17;102325.84;5099025;27;45406;-45
2022/03/01 02:52:14;;;;;;;;;70.00;48.75;;;;;7.06;49.96;102335.91;5098502;27;45318;-46
2022/03/01 02:54:39;;;;;;;;;57.00;47.75;;;;;6.98;49.92;102314.31;5099326;27;45357;-46
2022/03/01 02:57:05;;;;;;;;;65.25;49.00;;;;;7.06;50.06;102330.63;5099310;27;45292;-47
2022/03/01 02:59:31;;;;;;;;;58.00;44.75;;;;;7.06;50.05;102330.63;5099079;27;46068;-45
2022/03/01 03:01:57;;;;;;;;;65.00;47.50;;;;;7.05;50.40;102339.50;5097388;27;45228;-47
2022/03/01 03:04:24;;;;;;;;;66.50;49.00;;;;;7.02;50.28;102344.94;5099700;27;45318;-48
2022/03/01 03:06:49;;;;;;;;;65.25;44.50;;;;;7.01;50.57;102345.91;5099692;27;45281;-48
2022/03/01 03:09:15;;;;;;;;;63.50;44.75;;;;;7.00;50.81;102349.50;5099300;27;46180;-49
2022/03/01 03:11:41;;;;;;;;;60.75;42.50;;;;;6.91;50.43;102339.38;5099333;27;45685;-49
2022/03/01 03:14:06;;;;;;;;;50.50;43.50;;;;;6.98;49.91;102352.19;5099294;27;45390;-48
2022/03/01 03:16:32;;;;;;;;;62.25;50.50;;;;;6.99;50.03;102346.00;5099393;27;45414;-46
2022/03/01 03:18:57;;;;;;;;;63.75;48.75;;;;;7.00;50.20;102346.84;5099426;27;45279;-47
2022/03/01 03:21:23;;;;;;;;;59.00;44.50;;;;;6.98;49.97;102346.06;5099550;27;45481;-49
2022/03/01 03:23:49;;;;;;;;;59.00;45.75;;;;;6.95;50.44;102335.63;5098939;27;45404;-46
2022/03/01 03:26:14;;;;;;;;;65.75;50.00;;;;;6.99;50.29;102343.34;5099315;27;45323;-45
2022/03/01 03:28:40;;;;;;;;;65.50;49.00;;;;;6.99;50.50;102338.06;5098721;27;45259;-45
2022/03/01 03:31:05;;;;;;;;;61.75;46.00;;;;;6.96;50.88;102332.94;5098567;27;45446;-49
2022/03/01 03:33:31;;;;;;;;;61.25;49.00;;;;;6.99;50.99;102334.53;5099079;27;45261;-45
2022/03/01 03:35:56;;;;;;;;;61.00;48.25;;;;;6.98;50.95;102341.63;5098653;27;45199;-45
2022/03/01 03:38:23;;;;;;;;;61.25;47.50;;;;;6.99;50.87;102335.41;5098534;27;46966;-46
2022/03/01 03:40:49;;;;;;;;;63.25;46.25;;;;;6.99;51.00;102338.06;5098662;27;45426;-45
2022/03/01 03:43:14;;;;;;;;;56.00;44.00;;;;;6.98;50.36;102338.13;5098619;27;45293;-47
2022/03/01 03:45:39;;;;;;;;;64.50;44.75;;;;;6.95;50.38;102335.63;5098592;27;45429;-45
2022/03/01 03:48:05;;;;;;;;;64.00;48.00;;;;;6.88;51.05;102327.19;5097318;27;46339;-47
2022/03/01 03:50:32;;;;;;;;;63.25;45.50;;;;;6.75;51.29;102319.09;5098438;27;45633;-47
2022/03/01 03:52:58;;;;;;;;;60.50;44.50;;;;;6.79;50.73;102329.50;5098343;27;45323;-47
2022/03/01 03:55:23;;;;;;;;;57.00;41.00;;;;;6.69;51.15;102307.97;5098603;27;45405;-45
2022/03/01 03:57:49;;;;;;;;;59.50;41.00;;;;;6.68;51.60;102319.50;5098161;27;46925;-45
2022/03/01 04:00:17;;;;;;;;;60.75;43.50;;;;;6.73;51.33;102326.22;5098141;27;45298;-47
2022/03/01 04:02:46;;;;;;;;;52.75;44.25;;;;;6.64;51.09;102307.38;5098120;27;45424;-45
2022/03/01 04:05:13;;;;;;;;;64.25;49.00;;;;;6.75;51.27;102331.47;5098274;27;45488;-46
2022/03/01 04:07:43;;;;;;;;;65.00;49.00;;;;;6.78;51.28;102331.28;5098075;27;46216;-47
2022/03/01 04:10:09;;;;;;;;;64.00;45.75;;;;;6.81;51.47;102323.19;5098010;27;45242;-44
2022/03/01 04:12:35;;;;;;;;;64.25;46.25;;;;;6.84;51.43;102327.47;5098345;27;45399;-43
2022/03/01 04:15:01;;;;;;;;;60.00;41.00;;;;;6.84;50.21;102322.16;5098176;27;45466;-47
2022/03/01 04:17:26;;;;;;;;;61.75;47.50;;;;;6.78;50.71;102307.47;5097714;27;46112;-47
2022/03/01 04:19:52;;;;;;;;;65.00;47.00;;;;;6.72;50.93;102306.03;5096608;27;45398;-44
2022/03/01 04:22:17;;;;;;;;;61.25;45.50;;;;;6.74;50.55;102303.28;5097996;27;45919;-47
2022/03/01 04:24:44;;;;;;;;;62.25;46.75;;;;;6.67;51.28;102299.28;5098392;27;45322;-44
2022/03/01 04:27:09;;;;;;;;;62.50;45.50;;;;;6.54;51.59;102282.38;5097666;27;46377;-46
2022/03/01 04:29:34;;;;;;;;;60.75;49.25;;;;;6.64;51.80;102300.28;5097984;27;45224;-46
2022/03/01 04:32:01;;;;;;;;;61.25;47.75;;;;;6.60;51.83;102298.75;5097643;27;45552;-47
2022/03/01 04:34:27;;;;;;;;;66.25;46.50;;;;;6.58;51.83;102311.22;5098020;27;45314;-46
2022/03/01 04:36:52;;;;;;;;;59.00;47.50;;;;;6.56;52.15;102317.50;5097696;27;45313;-49
2022/03/01 04:39:18;;;;;;;;;59.00;46.50;;;;;6.56;51.37;102318.34;5097634;27;45460;-48
2022/03/01 04:41:43;;;;;;;;;58.50;46.00;;;;;6.54;51.44;102322.03;5097860;27;45359;-46
2022/03/01 04:44:09;;;;;;;;;58.00;46.50;;;;;6.53;51.33;102315.91;5097502;27;45342;-47
2022/03/01 04:46:34;;;;;;;;;57.00;45.00;;;;;6.54;51.17;102322.88;5097310;27;47207;-46
2022/03/01 04:49:00;;;;;;;;;58.00;43.50;;;;;6.57;51.46;102313.91;5097563;27;45396;-45
2022/03/01 04:51:25;;;;;;;;;52.50;38.75;;;;;6.60;51.18;102321.69;5097592;27;45351;-46
2022/03/01 04:53:51;;;;;;;;;50.50;42.50;;;;;6.64;50.87;102316.16;5097814;27;45374;-45
2022/03/01 04:56:17;;;;;;;;;60.50;45.25;;;;;6.69;50.52;102314.09;5097177;27;47192;-45
2022/03/01 04:58:44;;;;;;;;;68.50;48.00;;;;;6.75;51.57;102321.72;5097328;27;45566;-45
2022/03/01 05:01:09;;;;;;;;;64.75;45.50;;;;;6.76;51.25;102325.22;5097504;27;45435;-47
2022/03/01 05:03:34;;;;;;;;;64.50;45.25;;;;;6.78;51.27;102323.34;5097563;27;45634;-47
2022/03/01 05:06:00;;;;;;;;;41.00;35.75;;;;;6.83;51.07;102328.41;5097196;27;45298;-46
2022/03/01 05:08:30;;;;;;;;;66.00;47.25;;;;;6.89;51.01;102320.13;5097381;27;45314;-48
2022/03/01 05:10:58;;;;;;;;;62.00;43.50;;;;;6.92;50.80;102314.66;5097344;27;45480;-47
2022/03/01 05:13:24;;;;;;;;;60.00;45.50;;;;;6.89;50.90;102315.69;5097393;27;45223;-46
2022/03/01 05:15:50;;;;;;;;;61.25;47.50;;;;;6.87;50.82;102309.63;5098015;27;46065;-45
2022/03/01 05:18:15;;;;;;;;;58.50;46.00;;;;;6.89;50.63;102310.38;5100531;27;45300;-46
2022/03/01 05:20:40;;;;;;;;;54.50;45.00;;;;;6.82;50.53;102285.19;5100988;27;45344;-46
2022/03/01 05:23:06;;;;;;;;;51.00;39.00;;;;;6.86;50.42;102307.06;5100922;27;45285;-44
2022/03/01 05:25:31;;;;;;;;;67.75;49.00;;;;;6.83;50.17;102304.59;5100651;27;46060;-45
2022/03/01 05:27:56;;;;;;;;;62.75;43.75;;;;;6.82;50.71;102306.34;5100592;27;45382;-47
2022/03/01 05:30:23;;;;;;;;;61.50;45.00;;;;;6.79;50.64;102303.91;5100801;27;45332;-44
2022/03/01 05:32:50;;;;;;;;;57.25;44.75;;;;;6.75;50.21;102297.06;5100816;27;45553;-46
2022/03/01 05:35:18;;;;;;;;;65.25;45.25;;;;;6.74;50.14;102296.22;5100417;27;46993;-45
2022/03/01 05:37:47;;;;;;;;;55.75;44.50;;;;;6.73;50.58;102305.06;5100702;27;45374;-46
2022/03/01 05:40:13;;;;;;;;;51.25;42.50;;;;;6.75;50.20;102305.00;5100821;27;45264;-46
2022/03/01 05:42:40;;;;;;;;;50.50;44.50;;;;;6.79;50.00;102311.00;5100830;27;45350;-45
2022/03/01 05:45:06;;;;;;;;;53.25;41.50;;;;;6.77;50.14;102310.19;5100222;27;46860;-47
2022/03/01 05:47:31;;;;;;;;;51.75;42.25;;;;;6.80;50.41;102312.69;5100255;27;45577;-46
2022/03/01 05:49:57;;;;;;;;;65.00;42.75;;;;;6.80;50.44;102310.91;5100418;27;45323;-45
2022/03/01 05:52:23;;;;;;;;;61.00;43.25;;;;;6.78;50.51;102310.09;5100556;27;45620;-45
2022/03/01 05:54:48;;;;;;;;;55.25;42.50;;;;;6.78;50.41;102309.25;5100005;27;46322;-45
2022/03/01 05:57:14;;;;;;;;;55.25;43.00;;;;;6.81;50.19;102306.44;5100234;27;45389;-46
2022/03/01 05:59:39;;;;;;;;;69.25;48.00;;;;;6.85;50.07;102294.78;5100323;27;45395;-46
2022/03/01 06:02:05;;;;;;;;;60.75;46.25;;;;;6.86;50.76;102299.13;5100700;27;45374;-48
2022/03/01 06:04:30;;;;;;;;;65.75;43.25;;;;;6.86;50.96;102297.31;5100199;27;45340;-49
2022/03/01 06:06:56;;;;;;;;;60.00;45.25;;;;;6.88;50.73;102294.59;5100169;27;45353;-46
2022/03/01 06:09:22;;;;;;;;;62.00;44.50;;;;;6.86;50.35;102299.97;5100253;27;45334;-48
2022/03/01 06:11:47;;;;;;;;;63.75;47.75;;;;;6.85;50.64;102295.63;5100419;27;45458;-47
2022/03/01 06:14:13;;;;;;;;;61.50;44.50;;;;;6.81;50.58;102299.38;5081417;27;46002;-45
2022/03/01 06:16:39;;;;;;;;;62.25;45.50;;;;;6.82;51.02;102308.16;5099951;27;45223;-48
2022/03/01 06:19:05;;;;;;;;;56.25;46.75;;;;;6.79;50.29;102295.97;5099981;27;45393;-50
2022/03/01 06:21:30;;;;;;;;;58.25;43.25;;;;;6.79;51.11;102295.13;5100374;27;45400;-47
2022/03/01 06:23:56;;;;;;;;;59.25;43.75;;;;;6.74;50.61;102292.69;5099894;27;45677;-49
2022/03/01 06:26:21;;;;;;;;;56.50;43.50;;;;;6.87;50.45;102311.41;5098253;27;45391;-45
2022/03/01 06:28:47;;;;;;;;;57.00;44.00;;;;;6.88;50.81;102313.13;5099109;27;45405;-45
2022/03/01 06:31:12;;;;;;;;;44.75;39.00;;;;;6.82;49.64;102294.94;5100101;27;45412;-45
2022/03/01 06:33:38;;;;;;;;;61.00;46.50;;;;;6.88;50.11;102303.41;5099636;27;45306;-45
2022/03/01 06:36:03;;;;;;;;;56.50;42.00;;;;;6.93;50.13;102316.38;5099501;27;45335;-47
2022/03/01 06:38:29;;;;;;;;;56.00;44.50;;;;;6.93;50.16;102325.16;5099819;27;45458;-45
2022/03/01 06:40:56;;;;;;;;;58.25;42.75;;;;;6.97;50.11;102333.78;5081572;27;45567;-46
2022/03/01 06:43:23;;;;;;;;;55.50;42.25;;;;;6.96;49.77;102329.44;5080923;27;47283;-48
2022/03/01 06:45:48;;;;;;;;;60.25;44.00;;;;;7.02;49.33;102328.22;5099468;27;45434;-46
2022/03/01 06:48:14;;;;;;;;;60.00;43.25;;;;;7.07;49.86;102321.72;5099206;27;45425;-46
2022/03/01 06:50:39;;;;;;;;;53.75;41.25;;;;;7.12;49.77;102322.34;5099546;27;45396;-47
2022/03/01 06:53:06;;;;;;;;;57.50;45.25;;;;;7.18;49.71;102319.34;5099502;27;45471;-47
2022/03/01 06:55:32;;;;;;;;;61.00;48.00;;;;;7.23;49.88;102321.75;5099122;27;45330;-45
2022/03/01 06:57:57;;;;;;;;;59.25;42.75;;;;;7.25;49.97;102326.03;5098790;27;45692;-44
2022/03/01 07:00:23;;;;;;;;;44.75;40.00;;;;;7.33;49.06;102341.47;5099668;27;45337;-49
2022/03/01 07:02:48;;;;;;;;;48.50;39.50;;;;;7.41;49.66;102344.50;5099074;27;47233;-47
2022/03/01 07:05:15;;;;;;;;;44.75;40.00;;;;;7.44;48.87;102339.03;5099247;27;45306;-48
2022/03/01 07:07:41;;;;;;;;;54.50;42.50;;;;;7.49;48.56;102339.63;5099338;27;45177;-47
2022/03/01 07:10:11;;;;;;;;;49.75;40.75;;;;;7.48;48.16;102345.03;5099454;27;45198;-46
2022/03/01 07:12:36;;;;;;;;;56.00;39.00;;;;;7.43;48.52;102349.75;5098852;27;46306;-48
2022/03/01 07:15:03;;;;;;;;;57.50;41.50;;;;;7.45;48.49;102346.03;5098974;27;45373;-47
2022/03/01 07:17:28;;;;;;;;;49.75;42.50;;;;;7.42;48.53;102350.69;5099154;27;45440;-48
2022/03/01 07:19:54;;;;;;;;;59.00;41.25;;;;;7.36;48.15;102365.09;5099147;27;45464;-46
2022/03/01 07:22:20;;;;;;;;;44.25;38.25;;;;;7.34;48.55;102352.91;5098784;27;46092;-49
2022/03/01 07:24:45;;;;;;;;;52.50;39.25;;;;;7.33;48.71;102352.06;5097921;27;45349;-46
2022/03/01 07:27:11;;;;;;;;;59.25;41.00;;;;;7.33;48.05;102357.34;5098018;27;45365;-46
2022/03/01 07:29:37;;;;;;;;;55.50;41.00;;;;;7.37;48.09;102352.72;5096884;27;45495;-45
2022/03/01 07:32:05;;;;;;;;;49.75;40.25;;;;;7.42;48.04;102348.03;5097458;27;45794;-46
2022/03/01 07:34:30;;;;;;;;;59.25;40.25;;;;;7.45;47.86;102345.19;5098543;27;45407;-47
2022/03/01 07:36:56;;;;;;;;;56.25;40.25;;;;;7.51;47.74;102358.09;5098059;27;45618;-44
2022/03/01 07:39:21;;;;;;;;;50.50;40.75;;;;;7.53;47.62;102355.34;5097526;27;45417;-48
2022/03/01 07:41:47;;;;;;;;;43.00;34.25;;;;;7.61;47.87;102345.19;5098237;27;46703;-46
2022/03/01 07:44:12;;;;;;;;;55.50;41.25;;;;;7.69;47.41;102349.09;5097803;27;45395;-47
2022/03/01 07:46:37;;;;;;;;;46.75;40.00;;;;;7.73;47.88;102339.19;5098120;27;45346;-44
2022/03/01 07:49:03;;;;;;;;;53.25;42.75;;;;;7.85;46.72;102349.06;5098406;27;45482;-45
2022/03/01 07:51:29;;;;;;;;;49.75;40.50;;;;;7.94;47.57;102348.50;5098032;27;46050;-43
2022/03/01 07:53:54;;;;;;;;;55.25;42.25;;;;;8.00;47.00;102347.28;5098270;27;45483;-45
2022/03/01 07:56:21;;;;;;;;;54.75;44.75;;;;;8.07;47.25;102345.16;5097789;27;45488;-43
2022/03/01 07:58:47;;;;;;;;;51.50;41.00;;;;;8.19;46.22;102342.63;5098112;27;45786;-45
2022/03/01 08:01:12;;;;;;;;;51.50;41.00;;;;;8.27;45.97;102346.59;5097886;27;46228;-45
2022/03/01 08:03:37;;;;;;;;;53.00;41.25;;;;;8.35;47.07;102349.66;5097322;27;45354;-47
2022/03/01 08:06:03;;;;;;;;;54.00;39.00;;;;;8.34;46.57;102350.56;5096276;27;45400;-47
2022/03/01 08:08:29;;;;;;;;;51.50;42.25;;;;;8.30;46.13;102346.41;5098128;27;45465;-47
2022/03/01 08:10:54;;;;;;;;;53.75;41.25;;;;;8.24;46.73;102343.19;5097699;27;46132;-50
2022/03/01 08:13:20;;;;;;;;;52.25;43.00;;;;;8.29;46.48;102355.31;5079286;27;45443;-44
2022/03/01 08:15:45;;;;;;;;;48.25;41.00;;;;;8.33;46.91;102368.28;5097746;27;45512;-47
2022/03/01 08:18:10;;;;;;;;;50.00;39.75;;;;;8.37;46.49;102367.19;5097856;27;45443;-46
2022/03/01 08:20:36;;;;;;;;;55.00;40.25;;;;;8.50;46.45;102369.94;5097376;27;46081;-48
2022/03/01 08:23:02;;;;;;;;;58.25;40.00;;;;;8.57;46.09;102358.03;5097397;27;45462;-46
2022/03/01 08:25:28;;;;;;;;;56.00;41.50;;;;;8.62;45.98;102365.69;5097564;27;45416;-46
2022/03/01 08:27:53;;;;;;;;;48.00;40.00;;;;;8.66;45.56;102362.75;5097763;27;45291;-47
2022/03/01 08:30:19;;;;;;;;;58.50;43.00;;;;;8.64;46.25;102361.16;5097345;27;46891;-47
2022/03/01 08:32:46;;;;;;;;;61.25;46.25;;;;;8.66;45.58;102354.81;5097583;27;45323;-48
2022/03/01 08:35:11;;;;;;;;;58.25;42.25;;;;;8.61;45.94;102353.41;5079058;27;45365;-47
2022/03/01 08:37:37;;;;;;;;;60.00;42.75;;;;;8.57;46.75;102352.72;5097699;27;45417;-47
2022/03/01 08:40:04;;;;;;;;;59.75;42.00;;;;;8.66;46.35;102354.81;5096974;27;47033;-47
2022/03/01 08:42:29;;;;;;;;;58.50;42.00;;;;;8.71;45.85;102351.84;5097509;27;45781;-47
2022/03/01 08:44:55;;;;;;;;;58.25;46.00;;;;;8.81;45.76;102354.81;5097118;27;45334;-48
2022/03/01 08:47:20;;;;;;;;;54.75;38.00;;;;;8.92;46.15;102336.41;5097314;27;45472;-46
2022/03/01 08:49:46;;;;;;;;;57.25;41.25;;;;;9.13;45.75;102348.31;5078515;27;46814;-48
2022/03/01 08:52:11;;;;;;;;;50.75;41.50;;;;;9.34;44.99;102342.56;5096355;27;45276;-45
2022/03/01 08:54:36;;;;;;;;;53.50;39.50;;;;;9.58;44.37;102350.75;5097346;27;45346;-46
2022/03/01 08:57:03;;;;;;;;;59.50;43.75;;;;;9.71;44.53;102352.47;5097205;27;45481;-45
2022/03/01 08:59:28;;;;;;;;;57.50;44.25;;;;;9.83;44.14;102355.28;5096928;27;45549;-44
2022/03/01 09:01:53;;;;;;;;;50.75;41.25;;;;;9.93;43.84;102338.59;5097242;27;45421;-48
2022/03/01 09:04:19;;;;;;;;;52.00;39.50;;;;;10.00;43.46;102352.34;5096792;27;45390;-45
2022/03/01 09:06:44;;;;;;;;;67.00;45.75;;;;;9.98;43.48;102356.91;5097243;27;45393;-45
2022/03/01 09:09:10;;;;;;;;;59.00;45.00;;;;;9.95;44.35;102350.00;5096540;27;46099;-48
2022/03/01 09:11:35;;;;;;;;;50.50;42.50;;;;;9.93;43.41;102367.00;5097017;27;45480;-46
2022/03/01 09:14:00;;;;;;;;;52.25;41.75;;;;;9.94;44.15;102366.03;5097136;27;45400;-45
2022/03/01 09:16:26;;;;;;;;;54.00;45.00;;;;;9.99;44.10;102371.91;5097101;27;45324;-46
2022/03/01 09:18:51;;;;;;;;;57.50;42.50;;;;;10.12;44.13;102370.13;5096844;27;46179;-46
2022/03/01 09:21:17;;;;;;;;;60.75;46.00;;;;;10.16;43.95;102371.63;5096451;27;45292;-47
2022/03/01 09:23:42;;;;;;;;;58.00;45.00;;;;;10.29;43.80;102370.84;5096906;27;45414;-47
2022/03/01 09:26:08;;;;;;;;;37.00;36.25;;;;;10.28;43.22;102363.78;5096815;27;45378;-44
2022/03/01 09:28:34;;;;;;;;;59.00;45.75;;;;;10.38;43.28;102364.88;5096678;27;46363;-48
2022/03/01 09:31:00;;;;;;;;;56.50;43.75;;;;;10.27;43.15;102338.16;5096713;27;45327;-47
2022/03/01 09:33:25;;;;;;;;;58.00;44.00;;;;;10.37;43.15;102358.72;5096496;27;45455;-45
2022/03/01 09:35:50;;;;;;;;;54.00;41.00;;;;;10.41;43.02;102348.72;5096655;27;45309;-47
2022/03/01 09:38:16;;;;;;;;;60.75;46.25;;;;;10.52;43.35;102358.59;5096361;27;45963;-44
2022/03/01 09:40:46;;;;;;;;;54.25;40.50;;;;;10.60;42.77;102354.44;5096275;27;45500;-46
2022/03/01 09:43:12;;;;;;;;;61.00;46.00;;;;;10.82;42.90;102345.78;5096487;27;45366;-46
2022/03/01 09:45:37;;;;;;;;;56.75;44.00;;;;;11.11;42.44;102348.16;5096665;27;45544;-46
2022/03/01 09:48:03;;;;;;;;;58.25;45.50;;;;;11.55;42.06;102342.25;5096098;27;46141;-48
2022/03/01 09:50:29;;;;;;;;;56.50;43.00;;;;;13.07;39.77;102341.19;5096521;27;45320;-45
2022/03/01 09:52:59;;;;;;;;;55.50;39.75;;;;;14.47;36.37;102316.00;5096755;27;45393;-48
2022/03/01 09:55:25;;;;;;;;;52.25;41.75;;;;;15.08;35.41;102328.50;5096526;27;45468;-48
2022/03/01 09:57:51;;;;;;;;;36.00;29.00;;;;;15.44;34.27;102329.69;5095484;27;46244;-48
2022/03/01 10:00:17;;;;;;;;;52.00;39.75;;;;;15.55;33.86;102333.22;5095995;27;45232;-47
2022/03/01 10:02:43;;;;;;;;;51.00;39.00;;;;;15.62;33.80;102329.84;5098771;27;45379;-47
2022/03/01 10:05:10;;;;;;;;;47.75;36.50;;;;;16.31;33.29;102328.81;5099903;27;45429;-45
2022/03/01 10:07:38;;;;;;;;;46.50;38.75;;;;;17.86;31.50;102333.31;5099670;27;45441;-49
2022/03/01 10:10:09;;;;;;;;;42.33;33.33;;;;;19.46;29.07;102333.59;5099744;27;45325;-47
2022/03/01 10:12:35;;;;;;;;;51.33;38.33;;;;;20.55;28.64;102330.53;5099674;27;45484;-45
2022/03/01 10:15:06;;;;;;;;;43.00;34.67;;;;;21.80;25.64;102327.81;5099749;27;45429;-44
2022/03/01 10:17:39;;;;;;;;;51.33;39.67;;;;;22.54;25.04;102326.06;5099762;27;45440;-45
2022/03/01 10:20:07;;;;;;;;;48.33;39.67;;;;;22.74;24.21;102326.34;5099284;27;45424;-44
2022/03/01 10:22:33;;;;;;;;;49.00;39.00;;;;;22.46;24.62;102331.63;5099544;27;45372;-47
2022/03/01 10:25:04;;;;;;;;;53.00;41.00;;;;;22.08;25.85;102328.06;5099761;27;45402;-45
2022/03/01 10:27:30;;;;;;;;;48.67;39.33;;;;;22.09;25.64;102337.91;5099503;27;46136;-46
2022/03/01 10:29:56;;;;;;;;;46.67;39.67;;;;;22.15;24.95;102323.63;5099321;27;45755;-46
2022/03/01 10:32:21;;;;;;;;;48.67;38.00;;;;;21.96;24.74;102333.09;5099756;27;45344;-46
2022/03/01 10:35:03;;;;;;;;;53.00;41.67;;;;;21.71;26.18;102326.22;5099648;27;45260;-47
2022/03/01 10:37:30;;;;;;;;;51.00;38.33;;;;;22.65;24.98;102322.06;5099328;27;46142;-46
2022/03/01 10:40:19;;;;;;;;;47.00;37.33;;;;;23.71;23.70;102315.16;5099393;27;45431;-48
2022/03/01 10:42:46;;;;;;;;;51.00;37.00;;;;;24.82;21.57;102309.84;5099506;27;45449;-46
2022/03/01 10:45:12;;;;;;;;;52.00;37.33;;;;;25.53;22.33;102298.50;5099197;27;45555;-46
2022/03/01 10:47:39;;;;;;;;;53.33;41.33;;;;;26.03;21.25;102302.50;5099211;27;45338;-48
2022/03/01 10:50:09;;;;;;;;;53.33;39.33;;;;;25.70;21.60;102293.47;5098905;27;45431;-46
2022/03/01 10:52:37;;;;;;;;;43.33;36.00;;;;;24.32;24.75;102307.25;5098933;27;45425;-49
2022/03/01 10:55:04;;;;;;;;;48.67;36.33;;;;;22.80;23.75;102306.63;5099699;27;45228;-46
2022/03/01 10:57:30;;;;;;;;;43.67;37.00;;;;;21.45;25.17;102311.19;5099055;27;46026;-48
2022/03/01 10:59:55;;;;;;;;;49.33;37.00;;;;;20.30;26.17;102300.00;5099128;27;45277;-46
2022/03/01 11:02:21;;;;;;;;;48.67;38.33;;;;;19.13;27.73;102297.63;5099544;27;45266;-44
2022/03/01 11:04:48;;;;;;;;;50.67;39.00;;;;;18.29;28.84;102301.16;5099382;27;45347;-47
2022/03/01 11:07:15;;;;;;;;;45.67;35.00;;;;;17.67;29.87;102298.47;5098976;27;45375;-49
2022/03/01 11:09:40;;;;;;;;;54.67;41.00;;;;;17.17;30.96;102299.00;5098964;27;45394;-46
2022/03/01 11:12:08;;;;;;;;;50.00;39.33;;;;;16.88;31.10;102288.44;5099072;27;45476;-46
2022/03/01 11:14:51;;;;;;;;;47.67;38.33;;;;;16.49;31.78;102303.88;5098867;27;45437;-47